createdAt,value
2023-04-19T00:00:19.949Z,7.15
2023-04-19T00:04:03.073Z,7.88
2023-04-19T00:07:45.047Z,7.65
2023-04-19T00:11:26.888Z,7.78
2023-04-19T00:15:08.951Z,7.97
2023-04-19T00:18:50.726Z,7.45
2023-04-19T00:22:32.450Z,7.35
2023-04-19T00:26:15.838Z,7.70
2023-04-19T00:29:57.819Z,7.05
2023-04-19T00:33:39.504Z,7.68
2023-04-19T00:37:21.470Z,8.02
2023-04-19T00:41:03.218Z,7.55
2023-04-19T00:44:44.987Z,8.63
2023-04-19T00:48:26.777Z,8.38
2023-04-19T00:52:08.858Z,8.43
2023-04-19T00:55:51.418Z,7.93
2023-04-19T00:59:34.820Z,8.10
2023-04-19T01:03:17.043Z,8.43
2023-04-19T01:06:59.015Z,8.63
2023-04-19T01:10:40.811Z,8.45
2023-04-19T01:14:22.544Z,8.38
2023-04-19T01:18:04.581Z,8.48
2023-04-19T01:21:46.461Z,9.15
2023-04-19T01:25:28.362Z,8.50
2023-04-19T01:29:10.250Z,9.05
2023-04-19T01:32:52.035Z,9.10
2023-04-19T01:36:34.416Z,9.45
2023-04-19T01:40:16.452Z,9.52
2023-04-19T01:43:58.148Z,9.20
2023-04-19T01:47:39.947Z,9.85
2023-04-19T01:51:21.974Z,9.48
2023-04-19T01:55:04.004Z,9.68
2023-04-19T01:58:45.704Z,9.57
2023-04-19T02:02:27.530Z,9.50
2023-04-19T02:06:13.586Z,9.40
2023-04-19T02:09:55.455Z,10.13
2023-04-19T02:13:37.381Z,10.13
2023-04-19T02:17:19.140Z,10.45
2023-04-19T02:21:00.888Z,10.02
2023-04-19T02:24:42.601Z,10.60
2023-04-19T02:28:24.513Z,9.70
2023-04-19T02:32:07.092Z,9.75
2023-04-19T02:35:48.880Z,10.70
2023-04-19T02:39:31.257Z,9.90
2023-04-19T02:43:13.002Z,10.50
2023-04-19T02:46:55.036Z,10.30
2023-04-19T02:50:38.543Z,9.68
2023-04-19T02:54:20.308Z,9.88
2023-04-19T02:58:02.048Z,10.13
2023-04-19T03:01:43.960Z,10.40
2023-04-19T03:05:25.718Z,9.60
2023-04-19T03:09:07.444Z,10.35
2023-04-19T03:12:49.183Z,10.55
2023-04-19T03:16:30.892Z,10.65
2023-04-19T03:20:12.721Z,10.48
2023-04-19T03:23:55.382Z,10.25
2023-04-19T03:27:37.189Z,10.90
2023-04-19T03:31:18.934Z,11.18
2023-04-19T03:35:00.871Z,10.77
2023-04-19T03:38:44.421Z,10.73
2023-04-19T03:42:28.744Z,11.45
2023-04-19T03:46:10.808Z,11.35
2023-04-19T03:49:52.624Z,11.18
2023-04-19T03:53:34.498Z,11.07
2023-04-19T03:57:17.697Z,11.27
2023-04-19T04:00:59.967Z,10.90
2023-04-19T04:04:41.848Z,11.65
2023-04-19T04:08:23.808Z,11.40
2023-04-19T04:12:05.740Z,11.20
2023-04-19T04:15:47.435Z,11.85
2023-04-19T04:19:29.156Z,11.25
2023-04-19T04:23:11.002Z,11.75
2023-04-19T04:26:52.705Z,11.98
2023-04-19T04:30:34.975Z,12.00
2023-04-19T04:34:16.841Z,11.65
2023-04-19T04:37:59.720Z,12.38
2023-04-19T04:41:42.381Z,12.95
2023-04-19T04:45:24.165Z,12.23
2023-04-19T04:49:06.511Z,11.93
2023-04-19T04:52:48.232Z,12.73
2023-04-19T04:56:30.897Z,12.60
2023-04-19T05:00:13.167Z,13.85
2023-04-19T05:03:54.872Z,12.90
2023-04-19T05:07:36.641Z,13.15
2023-04-19T05:11:18.930Z,13.23
2023-04-19T05:15:00.788Z,13.07
2023-04-19T05:18:42.556Z,14.38
2023-04-19T05:22:24.299Z,13.57
2023-04-19T05:26:06.092Z,13.00
2023-04-19T05:29:47.971Z,13.07
2023-04-19T05:33:29.806Z,13.35
2023-04-19T05:37:11.550Z,13.38
2023-04-19T05:40:53.294Z,13.27
2023-04-19T05:44:35.014Z,14.73
2023-04-19T05:48:16.896Z,14.40
2023-04-19T05:51:58.654Z,13.43
2023-04-19T05:55:40.370Z,13.27
2023-04-19T05:59:22.113Z,14.07
2023-04-19T06:03:04.030Z,14.63
2023-04-19T06:06:45.791Z,13.55
2023-04-19T06:10:36.743Z,14.13
2023-04-19T06:14:23.031Z,15.50
2023-04-19T06:18:05.817Z,14.70
2023-04-19T06:21:47.797Z,14.32
2023-04-19T06:25:29.557Z,15.63
2023-04-19T06:29:11.331Z,14.93
2023-04-19T06:32:53.367Z,15.63
2023-04-19T06:36:35.279Z,15.20
2023-04-19T06:40:17.134Z,14.20
2023-04-19T06:43:58.869Z,14.52
2023-04-19T06:47:40.700Z,15.65
2023-04-19T06:51:22.564Z,16.17
2023-04-19T06:55:05.271Z,16.38
2023-04-19T06:58:46.991Z,16.00
2023-04-19T07:02:28.860Z,17.90
2023-04-19T07:06:10.864Z,16.02
2023-04-19T07:09:52.680Z,18.38
2023-04-19T07:13:34.429Z,18.45
2023-04-19T07:17:18.175Z,18.90
2023-04-19T07:20:59.935Z,20.05
2023-04-19T07:24:42.061Z,19.77
2023-04-19T07:28:23.829Z,20.75
2023-04-19T07:32:05.968Z,19.23
2023-04-19T07:35:47.836Z,20.25
2023-04-19T07:39:31.013Z,20.25
2023-04-19T07:43:12.816Z,20.60
2023-04-19T07:46:54.689Z,21.10
2023-04-19T07:50:37.455Z,20.17
2023-04-19T07:54:22.194Z,21.00
2023-04-19T07:58:04.029Z,21.23
2023-04-19T08:01:45.852Z,22.42
2023-04-19T08:05:27.879Z,21.65
2023-04-19T08:09:09.640Z,21.45
2023-04-19T08:13:05.361Z,21.20
2023-04-19T08:20:33.158Z,20.48
2023-04-19T08:24:15.188Z,19.38
2023-04-19T08:27:58.093Z,19.98
2023-04-19T08:31:39.903Z,20.48
2023-04-19T08:35:21.834Z,20.17
2023-04-19T08:39:08.145Z,20.35
2023-04-19T08:42:52.124Z,20.52
2023-04-19T08:46:33.910Z,18.40
2023-04-19T08:50:33.535Z,20.20
2023-04-19T08:54:19.453Z,18.35
2023-04-19T08:58:04.174Z,19.13
2023-04-19T09:01:47.599Z,18.45
2023-04-19T09:05:29.817Z,19.27
2023-04-19T09:09:35.599Z,19.70
2023-04-19T09:13:20.695Z,19.42
2023-04-19T09:17:15.833Z,19.08
2023-04-19T09:20:57.659Z,18.17
2023-04-19T09:28:24.701Z,18.17
2023-04-19T09:32:06.570Z,18.63
2023-04-19T09:35:49.606Z,18.05
2023-04-19T09:39:36.227Z,16.98
2023-04-19T09:43:49.627Z,16.90
2023-04-19T09:47:30.092Z,17.35
2023-04-19T09:51:14.447Z,16.38
2023-04-19T09:55:01.078Z,16.58
2023-04-19T09:58:50.757Z,16.53
2023-04-19T10:02:36.883Z,16.30
2023-04-19T10:10:18.816Z,16.80
2023-04-19T10:14:03.484Z,16.42
2023-04-19T10:17:45.584Z,16.63
2023-04-19T10:21:28.739Z,15.32
2023-04-19T10:25:15.789Z,15.10
2023-04-19T10:28:57.950Z,15.30
2023-04-19T10:32:45.173Z,14.73
2023-04-19T10:36:28.835Z,14.27
2023-04-19T10:40:12.298Z,13.57
2023-04-19T10:43:57.674Z,14.27
2023-04-19T10:47:46.590Z,13.60
2023-04-19T10:51:32.597Z,13.40
2023-04-19T10:55:18.097Z,12.90
2023-04-19T10:59:08.444Z,12.77
2023-04-19T11:02:50.597Z,13.80
2023-04-19T11:06:36.025Z,13.30
2023-04-19T11:10:31.566Z,13.00
2023-04-19T11:14:14.395Z,10.80
2023-04-19T11:18:11.460Z,11.45
2023-04-19T11:21:58.805Z,10.52
2023-04-19T11:25:40.585Z,10.68
2023-04-19T11:29:22.351Z,10.55
2023-04-19T11:33:04.201Z,9.68
2023-04-19T11:36:51.838Z,9.60
2023-04-19T11:40:34.004Z,9.07
2023-04-19T11:44:19.604Z,9.07
2023-04-19T11:48:01.712Z,9.30
2023-04-19T11:51:43.531Z,8.48
2023-04-19T11:55:25.492Z,8.45
2023-04-19T11:59:09.567Z,9.05
2023-04-19T12:02:52.554Z,7.88
2023-04-19T12:06:34.419Z,8.02
2023-04-19T12:10:16.168Z,8.25
2023-04-19T12:14:19.746Z,8.70
2023-04-19T12:18:02.812Z,8.68
2023-04-19T12:21:45.869Z,9.68
2023-04-19T12:25:32.321Z,9.07
2023-04-19T12:29:14.192Z,8.75
2023-04-19T12:32:56.557Z,9.77
2023-04-19T12:36:38.318Z,11.50
2023-04-19T12:40:20.476Z,10.20
2023-04-19T12:44:02.382Z,9.23
2023-04-19T12:47:45.857Z,9.70
2023-04-19T12:51:27.974Z,9.52
2023-04-19T12:55:09.857Z,9.60
2023-04-19T12:58:51.691Z,9.43
2023-04-19T13:02:36.924Z,9.45
2023-04-19T13:06:18.845Z,9.55
2023-04-19T13:10:00.796Z,8.77
2023-04-19T13:13:42.521Z,8.82
2023-04-19T13:17:24.338Z,9.38
2023-04-19T13:21:08.023Z,9.02
2023-04-19T13:24:51.596Z,9.68
2023-04-19T13:28:35.771Z,9.40
2023-04-19T13:32:17.652Z,9.38
2023-04-19T13:35:59.428Z,9.98
2023-04-19T13:39:41.279Z,9.50
2023-04-19T13:43:23.182Z,9.10
2023-04-19T13:47:04.988Z,9.40
2023-04-19T13:50:47.520Z,9.52
2023-04-19T13:54:30.463Z,8.35
2023-04-19T13:58:12.303Z,7.90
2023-04-19T14:01:55.832Z,8.27
2023-04-19T14:05:38.136Z,7.97
2023-04-19T14:09:19.995Z,8.00
2023-04-19T14:13:01.960Z,8.15
2023-04-19T14:16:44.903Z,8.32
2023-04-19T14:20:26.724Z,7.55
2023-04-19T14:24:08.551Z,8.52
2023-04-19T14:27:50.289Z,8.60
2023-04-19T14:31:32.102Z,7.60
2023-04-19T14:35:13.833Z,8.50
2023-04-19T14:38:55.546Z,8.57
2023-04-19T14:42:37.331Z,7.80
2023-04-19T14:46:19.079Z,7.70
2023-04-19T14:50:00.863Z,7.40
2023-04-19T14:53:42.601Z,7.00
2023-04-19T14:57:26.140Z,7.30
2023-04-19T15:01:12.556Z,7.13
2023-04-19T15:04:54.801Z,7.20
2023-04-19T15:08:36.644Z,7.47
2023-04-19T15:12:18.465Z,6.15
2023-04-19T15:16:02.512Z,6.30
2023-04-19T15:19:46.920Z,6.15
2023-04-19T15:23:28.694Z,5.78
2023-04-19T15:27:10.602Z,6.25
2023-04-19T15:31:03.050Z,6.10
2023-04-19T15:34:44.878Z,5.55
2023-04-19T15:38:29.223Z,6.53
2023-04-19T15:42:10.969Z,5.80
2023-04-19T15:45:52.987Z,5.80
2023-04-19T15:49:34.727Z,5.88
2023-04-19T15:53:16.728Z,5.32
2023-04-19T15:56:58.466Z,5.35
2023-04-19T16:00:40.238Z,5.00
2023-04-19T16:04:22.200Z,4.55
2023-04-19T16:08:09.443Z,4.00
2023-04-19T16:11:51.636Z,4.13
2023-04-19T16:15:34.040Z,3.97
2023-04-19T16:19:16.650Z,3.70
2023-04-19T16:22:59.085Z,5.03
2023-04-19T16:26:41.121Z,4.63
2023-04-19T16:30:23.704Z,4.45
2023-04-19T16:34:05.727Z,6.80
2023-04-19T16:37:47.501Z,4.32
2023-04-19T16:41:30.042Z,3.83
2023-04-19T16:45:11.983Z,4.40
2023-04-19T16:48:53.728Z,4.05
2023-04-19T16:52:35.956Z,4.00
2023-04-19T16:56:18.703Z,4.10
2023-04-19T17:00:00.972Z,4.28
2023-04-19T17:03:42.918Z,4.00
2023-04-19T17:07:24.874Z,4.90
2023-04-19T17:11:06.905Z,4.22
2023-04-19T17:14:48.765Z,4.78
2023-04-19T17:18:30.630Z,4.90
2023-04-19T17:22:14.868Z,4.05
2023-04-19T17:25:56.601Z,4.47
2023-04-19T17:29:38.571Z,4.03
2023-04-19T17:33:20.682Z,4.00
2023-04-19T17:37:02.731Z,4.55
2023-04-19T17:40:45.183Z,4.15
2023-04-19T17:44:27.043Z,4.88
2023-04-19T17:48:08.965Z,4.38
2023-04-19T17:51:50.703Z,4.93
2023-04-19T17:55:33.276Z,4.80
2023-04-19T17:59:15.214Z,4.88
2023-04-19T18:02:57.310Z,4.43
2023-04-19T18:06:39.396Z,4.47
2023-04-19T18:10:21.265Z,3.72
2023-04-19T18:14:03.257Z,4.03
2023-04-19T18:17:45.123Z,3.55
2023-04-19T18:21:27.196Z,4.00
2023-04-19T18:25:09.453Z,3.75
2023-04-19T18:28:51.164Z,3.65
2023-04-19T18:32:33.237Z,3.95
2023-04-19T18:36:14.979Z,3.88
2023-04-19T18:39:56.776Z,3.78
2023-04-19T18:43:38.920Z,3.33
2023-04-19T18:47:20.676Z,3.92
2023-04-19T18:51:03.022Z,3.53
2023-04-19T18:54:44.709Z,7.40
2023-04-19T18:58:27.341Z,4.60
2023-04-19T19:02:09.394Z,4.30
2023-04-19T19:05:51.397Z,3.33
2023-04-19T19:09:33.281Z,3.53
2023-04-19T19:13:15.114Z,3.70
2023-04-19T19:16:57.515Z,3.30
2023-04-19T19:20:39.334Z,3.45
2023-04-19T19:24:21.181Z,3.92
2023-04-19T19:28:08.197Z,3.13
2023-04-19T19:31:51.908Z,3.50
2023-04-19T19:35:34.156Z,3.58
2023-04-19T19:39:16.095Z,4.30
2023-04-19T19:42:58.127Z,3.97
2023-04-19T19:46:40.231Z,4.82
2023-04-19T19:54:07.451Z,3.72
2023-04-19T19:58:21.010Z,3.47
2023-04-19T20:01:51.609Z,3.25
2023-04-19T20:05:33.790Z,3.25
2023-04-19T20:09:16.319Z,3.45
2023-04-19T20:12:58.536Z,3.90
2023-04-19T20:16:40.569Z,3.05
2023-04-19T20:20:22.560Z,3.60
2023-04-19T20:24:07.842Z,3.35
2023-04-19T20:27:49.635Z,3.38
2023-04-19T20:31:31.525Z,3.28
2023-04-19T20:35:13.311Z,4.15
2023-04-19T20:38:56.922Z,3.85
2023-04-19T20:42:38.798Z,4.00
2023-04-19T20:46:20.757Z,3.75
2023-04-19T20:50:02.705Z,3.80
2023-04-19T20:53:45.076Z,3.53
2023-04-19T20:57:26.795Z,3.63
2023-04-19T21:01:08.841Z,3.50
2023-04-19T21:04:50.728Z,4.28
2023-04-19T21:08:32.566Z,3.95
2023-04-19T21:12:14.337Z,3.85
2023-04-19T21:15:56.136Z,4.20
2023-04-19T21:19:38.001Z,3.65
2023-04-19T21:23:19.827Z,4.07
2023-04-19T21:27:01.740Z,4.35
2023-04-19T21:30:43.485Z,4.15
2023-04-19T21:34:25.239Z,4.00
2023-04-19T21:38:07.110Z,3.75
2023-04-19T21:41:48.907Z,4.00
2023-04-19T21:45:30.959Z,4.50
2023-04-19T21:49:12.765Z,4.47
2023-04-19T21:52:54.509Z,4.60
2023-04-19T21:56:37.657Z,4.10
2023-04-19T22:00:19.895Z,4.30
2023-04-19T22:04:02.045Z,3.90
2023-04-19T22:07:44.927Z,4.00
2023-04-19T22:11:28.990Z,4.20
2023-04-19T22:15:11.200Z,4.30
2023-04-19T22:18:53.044Z,4.30
2023-04-19T22:22:35.425Z,4.45
2023-04-19T22:26:17.297Z,4.63
2023-04-19T22:29:59.018Z,4.57
2023-04-19T22:33:40.725Z,4.32
2023-04-19T22:37:22.551Z,4.10
2023-04-19T22:41:04.594Z,3.70
2023-04-19T22:44:46.320Z,3.50
2023-04-19T22:48:30.072Z,4.18
2023-04-19T22:52:12.153Z,3.95
2023-04-19T22:55:53.989Z,4.10
2023-04-19T22:59:35.810Z,3.85
2023-04-19T23:03:17.570Z,3.88
2023-04-19T23:06:59.558Z,4.50
2023-04-19T23:10:42.542Z,3.75
2023-04-19T23:14:24.684Z,3.53
2023-04-19T23:18:07.059Z,4.40
2023-04-19T23:21:50.285Z,3.92
2023-04-19T23:25:32.304Z,4.07
2023-04-19T23:29:14.239Z,3.75
2023-04-19T23:32:56.098Z,3.42
2023-04-19T23:36:38.007Z,2.90
2023-04-19T23:40:20.655Z,3.63
2023-04-19T23:44:02.500Z,3.22
2023-04-19T23:47:44.313Z,3.10
2023-04-19T23:51:26.169Z,3.28
2023-04-19T23:55:08.315Z,3.03
2023-04-19T23:58:50.235Z,2.80
